Addyston, OH

9:27 PM EDT on March 24, 2017 (GMT -0400)
Bridgetown Sanctuary | | Change Station

Elev 780 ft 39.17 °N, 84.72 °W | Updated 22 seconds ago

Partly Cloudy
Partly Cloudy
68.5 °F
Feels Like 68.5 °F
N
4.3
Wind Variable Wind from South
Gusts 5.0 mph

Today
High -- | Low -- °F
--% Chance of Precip.
Yesterday
High -- | Low -- °F
Precip. -- in
Pressure 30.10 in
Visibility 10.0 miles
Clouds Overcast 25000 ft
Dew Point 55 °F
Humidity 63%
Rainfall 0.00 in
Snow Depth Not available.
7:35 AM 7:55 PM
Waning Crescent, 11% visible
METAR KCVG 250052Z 20010G17KT 10SM OVC250 20/11 A3011 RMK AO2 SLP192 T02000111
Pressure 30.10 in
Visibility 10.0 miles
Clouds Overcast 25000 ft
Dew Point 55 °F
Humidity 63%
Rainfall 0.00 in
Snow Depth Not available.
7:35 AM 7:55 PM
Waning Crescent, 11% visible
METAR KCVG 250052Z 20010G17KT 10SM OVC250 20/11 A3011 RMK AO2 SLP192 T02000111

Get Severe Weather Alerts

Thanks for signing up!

Be on the lookout for a verification email in your inbox.

You'll start receiving the daily forecast at 8 AM.

×

10-Day Weather Forecast

Almanac

Astronomy

Mar. 24, 2017 Rise Set
Actual Time
Civil Twilight
Nautical Twilight
Astronomical Twilight
Moon
Length of Visible Light
Length of Day
Tomorrow will be .
, % of the Moon is Illuminated

Today's Extremes

State Highs State Lows

Community

WunderPhotos

Upload Photos

1,962,540 photos uploaded!

WunderBlog® & News

Nearby

Air Quality

  Air Quality AQ Index Pollutant
Not available.

Snow Depth

Station Depth Elevation

Earthquake Activity

City Distance Mag. Time & Date
Minimum magnitude displayed is 2.5.

Earthquake Activity

City Distance Mag. Time & Date
Minimum magnitude displayed is 2.5.

Coastal Water Temperatures

Place Temperature

Stations

Nearby Weather Stations

Station Location Temp. Windchill Dew Point Humidity Wind Precip. Elev Updated Type
                   

Watches & Warnings

There are currently no watches in effect.